createdAt,value
2018-02-04T00:00:53.952Z,17.29
2018-02-04T00:01:54.565Z,17.3
2018-02-04T00:02:54.154Z,17.29
2018-02-04T00:03:53.727Z,17.28
2018-02-04T00:04:54.329Z,17.29
2018-02-04T00:05:53.933Z,17.29
2018-02-04T00:06:54.580Z,17.26
2018-02-04T00:07:54.155Z,17.25
2018-02-04T00:08:53.722Z,17.25
2018-02-04T00:09:54.354Z,17.25
2018-02-04T00:10:53.948Z,17.24
2018-02-04T00:11:54.568Z,17.25
2018-02-04T00:12:54.169Z,17.28
2018-02-04T00:13:53.747Z,17.26
2018-02-04T00:14:54.441Z,17.25
2018-02-04T00:15:54.027Z,17.25
2018-02-04T00:16:54.597Z,17.24
2018-02-04T00:17:54.203Z,17.23
2018-02-04T00:18:53.793Z,17.24
2018-02-04T00:19:54.370Z,17.25
2018-02-04T00:20:54.060Z,17.24
2018-02-04T00:21:53.633Z,17.24
2018-02-04T00:22:54.515Z,17.21
2018-02-04T00:23:54.194Z,17.23
2018-02-04T00:24:53.782Z,17.21
2018-02-04T00:25:54.358Z,17.23
2018-02-04T00:26:54.026Z,17.19
2018-02-04T00:27:54.631Z,17.22
2018-02-04T00:28:54.501Z,17.21
2018-02-04T00:29:54.435Z,17.19
2018-02-04T00:30:55.023Z,17.19
2018-02-04T00:31:54.624Z,17.2
2018-02-04T00:32:55.209Z,17.21
2018-02-04T00:33:54.920Z,17.18
2018-02-04T00:34:54.533Z,17.19
2018-02-04T00:35:55.110Z,17.17
2018-02-04T00:36:54.689Z,17.16
2018-02-04T00:37:55.273Z,17.17
2018-02-04T00:38:54.876Z,17.16
2018-02-04T00:39:54.468Z,17.18
2018-02-04T00:40:55.088Z,17.16
2018-02-04T00:41:54.673Z,17.18
2018-02-04T00:42:55.292Z,17.17
2018-02-04T00:43:54.878Z,17.15
2018-02-04T00:44:54.463Z,17.16
2018-02-04T00:45:55.054Z,17.16
2018-02-04T00:46:54.651Z,17.16
2018-02-04T00:47:55.244Z,17.15
2018-02-04T00:48:54.851Z,17.16
2018-02-04T00:49:54.466Z,17.17
2018-02-04T00:50:55.069Z,17.14
2018-02-04T00:51:54.653Z,17.11
2018-02-04T00:52:55.261Z,17.14
2018-02-04T00:53:54.866Z,17.13
2018-02-04T00:54:54.552Z,17.13
2018-02-04T00:55:55.154Z,17.15
2018-02-04T00:56:54.748Z,17.14
2018-02-04T00:57:54.378Z,17.14
2018-02-04T00:58:54.966Z,17.15
2018-02-04T00:59:54.585Z,17.11
2018-02-04T01:00:54.209Z,17.13
2018-02-04T01:01:53.787Z,17.1
2018-02-04T01:02:54.379Z,17.1
2018-02-04T01:03:53.965Z,17.13
2018-02-04T01:04:53.552Z,17.11
2018-02-04T01:05:54.166Z,17.09
2018-02-04T01:06:53.742Z,17.09
2018-02-04T01:07:54.350Z,17.11
2018-02-04T01:08:53.946Z,17.09
2018-02-04T01:09:54.554Z,17.07
2018-02-04T01:10:54.143Z,17.1
2018-02-04T01:11:53.760Z,17.09
2018-02-04T01:12:54.343Z,17.09
2018-02-04T01:13:54.036Z,17.06
2018-02-04T01:14:53.619Z,17.07
2018-02-04T01:15:54.219Z,17.07
2018-02-04T01:16:53.893Z,17.09
2018-02-04T01:17:54.479Z,17.04
2018-02-04T01:18:54.064Z,17.07
2018-02-04T01:19:53.660Z,17.07
2018-02-04T01:20:54.237Z,17.05
2018-02-04T01:21:53.837Z,17.04
2018-02-04T01:22:54.496Z,17.04
2018-02-04T01:23:54.100Z,17.06
2018-02-04T01:24:53.681Z,17.05
2018-02-04T01:25:54.270Z,17.05
2018-02-04T01:26:53.865Z,17.04
2018-02-04T01:27:54.477Z,17.04
2018-02-04T01:28:54.063Z,17.03
2018-02-04T01:29:53.645Z,17.04
2018-02-04T01:30:54.475Z,17.03
2018-02-04T01:31:54.071Z,17.03
2018-02-04T01:32:53.704Z,17.02
2018-02-04T01:33:54.325Z,17.03
2018-02-04T01:34:53.910Z,17.01
2018-02-04T01:35:53.583Z,17.03
2018-02-04T01:36:54.195Z,17.02
2018-02-04T01:37:53.796Z,17.01
2018-02-04T01:38:54.387Z,16.98
2018-02-04T01:39:54.011Z,17.01
2018-02-04T01:40:53.553Z,17.02
2018-02-04T01:41:54.223Z,17.02
2018-02-04T01:42:53.822Z,16.99
2018-02-04T01:43:54.414Z,16.99
2018-02-04T01:44:54.106Z,17
2018-02-04T01:45:53.695Z,16.99
2018-02-04T01:46:54.284Z,16.98
2018-02-04T01:47:53.868Z,16.98
2018-02-04T01:48:53.464Z,16.99
2018-02-04T01:50:53.442Z,17
2018-02-04T01:51:54.036Z,16.99
2018-02-04T01:52:53.623Z,16.98
2018-02-04T01:53:54.250Z,17
2018-02-04T01:54:53.828Z,16.96
2018-02-04T01:55:54.422Z,16.96
2018-02-04T01:56:54.027Z,16.96
2018-02-04T01:57:53.640Z,16.94
2018-02-04T01:58:54.261Z,16.98
2018-02-04T01:59:53.841Z,16.98
2018-02-04T02:00:53.526Z,16.94
2018-02-04T02:01:54.158Z,16.94
2018-02-04T02:02:54.741Z,16.94
2018-02-04T02:03:54.354Z,16.94
2018-02-04T02:04:54.936Z,16.94
2018-02-04T02:05:54.531Z,16.93
2018-02-04T02:06:55.127Z,16.91
2018-02-04T02:07:54.704Z,16.95
2018-02-04T02:08:54.288Z,16.96
2018-02-04T02:09:54.972Z,16.91
2018-02-04T02:10:54.563Z,16.92
2018-02-04T02:11:54.151Z,16.92
2018-02-04T02:12:54.729Z,16.92
2018-02-04T02:13:54.308Z,16.93
2018-02-04T02:14:54.905Z,16.92
2018-02-04T02:15:54.718Z,16.94
2018-02-04T02:16:54.309Z,16.94
2018-02-04T02:17:55.167Z,16.91
2018-02-04T02:18:54.915Z,16.92
2018-02-04T02:19:54.491Z,16.96
2018-02-04T02:20:55.073Z,16.92
2018-02-04T02:21:54.666Z,16.95
2018-02-04T02:22:54.280Z,16.91
2018-02-04T02:23:54.886Z,16.92
2018-02-04T02:24:54.485Z,16.9
2018-02-04T02:25:55.063Z,16.89
2018-02-04T02:26:54.656Z,16.89
2018-02-04T02:27:54.249Z,16.88
2018-02-04T02:28:54.831Z,16.89
2018-02-04T02:29:54.420Z,16.9
2018-02-04T02:30:55.010Z,16.89
2018-02-04T02:31:54.876Z,16.89
2018-02-04T02:32:54.484Z,16.88
2018-02-04T02:33:54.058Z,16.87
2018-02-04T02:34:54.669Z,16.87
2018-02-04T02:35:54.268Z,16.88
2018-02-04T02:36:53.849Z,16.88
2018-02-04T02:37:54.552Z,16.88
2018-02-04T02:38:54.128Z,16.86
2018-02-04T02:39:54.705Z,16.89
2018-02-04T02:40:54.319Z,16.86
2018-02-04T02:41:53.904Z,16.87
2018-02-04T02:42:54.524Z,16.86
2018-02-04T02:43:54.113Z,16.87
2018-02-04T02:44:54.714Z,16.85
2018-02-04T02:45:54.305Z,16.86
2018-02-04T02:46:53.895Z,16.84
2018-02-04T02:47:54.475Z,16.87
2018-02-04T02:48:54.113Z,16.85
2018-02-04T02:49:54.763Z,16.82
2018-02-04T02:50:54.359Z,16.82
2018-02-04T02:51:53.959Z,16.84
2018-02-04T02:52:54.562Z,16.81
2018-02-04T02:53:54.145Z,16.85
2018-02-04T02:54:54.729Z,16.84
2018-02-04T02:55:54.311Z,16.85
2018-02-04T02:56:53.972Z,16.81
2018-02-04T02:57:54.578Z,16.82
2018-02-04T02:58:54.179Z,16.81
2018-02-04T02:59:54.846Z,16.81
2018-02-04T03:00:54.426Z,16.82
2018-02-04T03:01:54.048Z,16.85
2018-02-04T03:02:54.704Z,16.8
2018-02-04T03:03:54.301Z,16.8
2018-02-04T03:04:53.901Z,16.82
2018-02-04T03:05:54.617Z,16.81
2018-02-04T03:06:54.190Z,16.82
2018-02-04T03:07:53.809Z,16.79
2018-02-04T03:08:54.414Z,16.8
2018-02-04T03:09:54.002Z,16.8
2018-02-04T03:10:54.590Z,16.81
2018-02-04T03:11:54.203Z,16.77
2018-02-04T03:12:53.774Z,16.78
2018-02-04T03:13:54.363Z,16.81
2018-02-04T03:14:53.961Z,16.78
2018-02-04T03:15:54.551Z,16.78
2018-02-04T03:16:54.148Z,16.81
2018-02-04T03:17:53.735Z,16.78
2018-02-04T03:18:54.356Z,16.77
2018-02-04T03:19:53.944Z,16.77
2018-02-04T03:20:54.531Z,16.75
2018-02-04T03:21:54.111Z,16.74
2018-02-04T03:22:53.711Z,16.73
2018-02-04T03:23:54.292Z,16.75
2018-02-04T03:24:54.087Z,16.77
2018-02-04T03:25:53.671Z,16.77
2018-02-04T03:26:54.310Z,16.77
2018-02-04T03:27:53.908Z,16.76
2018-02-04T03:28:54.504Z,16.77
2018-02-04T03:29:54.124Z,16.76
2018-02-04T03:30:53.696Z,16.75
2018-02-04T03:31:54.286Z,16.75
2018-02-04T03:32:54.085Z,16.74
2018-02-04T03:33:53.738Z,16.77
2018-02-04T03:34:54.326Z,16.76
2018-02-04T03:35:53.915Z,16.76
2018-02-04T03:36:54.528Z,16.73
2018-02-04T03:37:54.104Z,16.78
2018-02-04T03:38:53.697Z,16.73
2018-02-04T03:39:54.332Z,16.76
2018-02-04T03:40:53.900Z,16.71
2018-02-04T03:41:54.483Z,16.75
2018-02-04T03:42:54.072Z,16.73
2018-02-04T03:43:54.674Z,16.73
2018-02-04T03:44:54.548Z,16.72
2018-02-04T03:45:54.140Z,16.7
2018-02-04T03:46:53.848Z,16.72
2018-02-04T03:47:54.436Z,16.73
2018-02-04T03:48:54.013Z,16.72
2018-02-04T03:49:54.642Z,16.72
2018-02-04T03:50:54.244Z,16.71
2018-02-04T03:51:53.853Z,16.71
2018-02-04T03:52:54.430Z,16.7
2018-02-04T03:53:54.022Z,16.7
2018-02-04T03:54:54.612Z,16.72
2018-02-04T03:55:54.376Z,16.7
2018-02-04T03:56:53.955Z,16.7
2018-02-04T03:57:54.531Z,16.7
2018-02-04T03:58:54.221Z,16.71
2018-02-04T03:59:53.840Z,16.69
2018-02-04T04:00:54.421Z,16.71
2018-02-04T04:01:54.065Z,16.69
2018-02-04T04:02:54.663Z,16.72
2018-02-04T04:03:54.321Z,16.66
2018-02-04T04:04:55.002Z,16.69
2018-02-04T04:05:54.600Z,16.66
2018-02-04T04:06:55.202Z,16.69
2018-02-04T04:07:54.844Z,16.69
2018-02-04T04:08:54.426Z,16.69
2018-02-04T04:09:55.028Z,16.69
2018-02-04T04:10:54.668Z,16.69
2018-02-04T04:11:54.262Z,16.64
2018-02-04T04:12:54.843Z,16.65
2018-02-04T04:13:54.432Z,16.67
2018-02-04T04:14:55.016Z,16.66
2018-02-04T04:15:54.619Z,16.66
2018-02-04T04:16:55.198Z,16.67
2018-02-04T04:17:54.774Z,16.67
2018-02-04T04:18:54.367Z,16.66
2018-02-04T04:19:54.973Z,16.64
2018-02-04T04:20:54.569Z,16.64
2018-02-04T04:21:55.157Z,16.65
2018-02-04T04:22:54.751Z,16.65
2018-02-04T04:23:54.472Z,16.63
2018-02-04T04:24:55.059Z,16.64
2018-02-04T04:25:54.617Z,16.64
2018-02-04T04:26:55.197Z,16.64
2018-02-04T04:27:54.765Z,16.65
2018-02-04T04:28:54.350Z,16.63
2018-02-04T04:29:55.011Z,16.63
2018-02-04T04:30:54.630Z,16.64
2018-02-04T04:31:55.215Z,16.62
2018-02-04T04:32:54.890Z,16.62
2018-02-04T04:33:54.707Z,16.62
2018-02-04T04:34:54.328Z,16.62
2018-02-04T04:35:53.908Z,16.6
2018-02-04T04:36:54.475Z,16.62
2018-02-04T04:37:54.098Z,16.6
2018-02-04T04:38:54.662Z,16.64
2018-02-04T04:39:54.579Z,16.6
2018-02-04T04:40:54.219Z,16.61
2018-02-04T04:41:53.821Z,16.61
2018-02-04T04:42:54.410Z,16.59
2018-02-04T04:43:53.987Z,16.59
2018-02-04T04:44:54.608Z,16.62
2018-02-04T04:45:54.291Z,16.63
2018-02-04T04:46:53.891Z,16.6
2018-02-04T04:47:54.477Z,16.61
2018-02-04T04:48:54.075Z,16.6
2018-02-04T04:49:53.659Z,16.6
2018-02-04T04:50:54.243Z,16.59
2018-02-04T04:51:53.840Z,16.61
2018-02-04T04:52:54.413Z,16.6
2018-02-04T04:53:54.015Z,16.62
2018-02-04T04:54:54.712Z,16.61
2018-02-04T04:55:54.283Z,16.63
2018-02-04T04:56:53.887Z,16.63
2018-02-04T04:57:54.453Z,16.62
2018-02-04T04:58:54.032Z,16.62
2018-02-04T04:59:54.626Z,16.62
2018-02-04T05:00:54.206Z,16.62
2018-02-04T05:01:53.825Z,16.63
2018-02-04T05:02:54.409Z,16.63
2018-02-04T05:03:53.988Z,16.64
2018-02-04T05:04:54.659Z,16.65
2018-02-04T05:05:54.263Z,16.65
2018-02-04T05:06:53.836Z,16.65
2018-02-04T05:07:54.436Z,16.66
2018-02-04T05:08:54.034Z,16.66
2018-02-04T05:09:53.631Z,16.69
2018-02-04T05:10:54.236Z,16.67
2018-02-04T05:11:53.890Z,16.7
2018-02-04T05:12:54.515Z,16.72
2018-02-04T05:13:54.333Z,16.73
2018-02-04T05:14:53.910Z,16.73
2018-02-04T05:15:54.488Z,16.74
2018-02-04T05:16:54.080Z,16.77
2018-02-04T05:17:53.695Z,16.78
2018-02-04T05:18:54.299Z,16.78
2018-02-04T05:19:53.894Z,16.8
2018-02-04T05:20:54.486Z,16.81
2018-02-04T05:21:54.069Z,16.82
2018-02-04T05:22:53.716Z,16.85
2018-02-04T05:23:54.313Z,16.84
2018-02-04T05:24:53.902Z,16.88
2018-02-04T05:25:54.481Z,16.89
2018-02-04T05:26:54.113Z,16.92
2018-02-04T05:27:53.702Z,16.91
2018-02-04T05:28:54.338Z,16.94
2018-02-04T05:29:53.933Z,16.96
2018-02-04T05:30:54.524Z,16.98
2018-02-04T05:31:54.100Z,16.99
2018-02-04T05:32:53.858Z,17.01
2018-02-04T05:33:54.468Z,17.03
2018-02-04T05:34:54.256Z,17.04
2018-02-04T05:35:54.064Z,17.06
2018-02-04T05:36:54.647Z,17.08
2018-02-04T05:37:54.237Z,17.08
2018-02-04T05:38:54.916Z,17.08
2018-02-04T05:39:54.499Z,17.13
2018-02-04T05:40:54.102Z,17.15
2018-02-04T05:41:54.687Z,17.16
2018-02-04T05:42:54.276Z,17.16
2018-02-04T05:43:54.866Z,17.19
2018-02-04T05:44:54.658Z,17.2
2018-02-04T05:46:55.755Z,17.31
2018-02-04T05:47:54.338Z,17.25
2018-02-04T05:48:54.916Z,17.26
2018-02-04T05:49:54.512Z,17.28
2018-02-04T05:50:54.152Z,17.26
2018-02-04T05:51:54.733Z,17.28
2018-02-04T05:52:54.335Z,17.32
2018-02-04T05:53:54.913Z,17.31
2018-02-04T05:54:54.496Z,17.32
2018-02-04T05:55:54.078Z,17.32
2018-02-04T05:56:54.751Z,17.34
2018-02-04T05:57:54.330Z,17.36
2018-02-04T05:58:54.913Z,17.36
2018-02-04T05:59:54.505Z,17.37
2018-02-04T06:00:54.133Z,17.39
2018-02-04T06:01:54.704Z,17.39
2018-02-04T06:02:54.296Z,17.41
2018-02-04T06:03:54.884Z,17.44
2018-02-04T06:04:54.485Z,17.41
2018-02-04T06:05:54.113Z,17.44
2018-02-04T06:06:54.736Z,17.46
2018-02-04T06:07:54.331Z,17.47
2018-02-04T06:08:54.926Z,17.49
2018-02-04T06:09:54.594Z,17.48
2018-02-04T06:10:54.214Z,17.5
2018-02-04T06:11:55.232Z,17.5
2018-02-04T06:12:54.906Z,17.52
2018-02-04T06:13:54.480Z,17.52
2018-02-04T06:14:54.058Z,17.52
2018-02-04T06:15:54.660Z,17.56
2018-02-04T06:16:54.264Z,17.55
2018-02-04T06:17:54.864Z,17.58
2018-02-04T06:18:54.483Z,17.59
2018-02-04T06:19:54.075Z,17.56
2018-02-04T06:20:54.661Z,17.59
2018-02-04T06:21:54.246Z,17.59
2018-02-04T06:22:54.876Z,17.61
2018-02-04T06:23:54.471Z,17.62
2018-02-04T06:24:54.033Z,17.59
2018-02-04T06:25:54.613Z,17.63
2018-02-04T06:26:54.220Z,17.64
2018-02-04T06:27:54.849Z,17.63
2018-02-04T06:28:54.443Z,17.64
2018-02-04T06:29:55.043Z,17.67
2018-02-04T06:30:54.648Z,17.66
2018-02-04T06:31:54.307Z,17.66
2018-02-04T06:32:54.895Z,17.67
2018-02-04T06:33:54.485Z,17.68
2018-02-04T06:34:54.212Z,17.67
2018-02-04T06:35:55.159Z,17.68
2018-02-04T06:36:54.747Z,17.68
2018-02-04T06:37:54.370Z,17.69
2018-02-04T06:38:54.977Z,17.69
2018-02-04T06:39:54.568Z,17.72
2018-02-04T06:40:54.159Z,17.73
2018-02-04T06:41:54.771Z,17.73
2018-02-04T06:42:54.358Z,17.73
2018-02-04T06:43:55.110Z,17.73
2018-02-04T06:44:54.697Z,17.74
2018-02-04T06:45:54.295Z,17.74
2018-02-04T06:46:54.931Z,17.75
2018-02-04T06:47:54.526Z,17.75
2018-02-04T06:48:54.140Z,17.73
2018-02-04T06:49:54.733Z,17.77
2018-02-04T06:50:54.324Z,17.76
2018-02-04T06:51:55.214Z,17.77
2018-02-04T06:52:54.798Z,17.77
2018-02-04T06:53:54.371Z,17.78
2018-02-04T06:54:54.963Z,17.78
2018-02-04T06:55:54.539Z,17.8
2018-02-04T06:56:54.249Z,17.77
2018-02-04T06:57:54.861Z,17.77
2018-02-04T06:58:54.454Z,17.79
2018-02-04T06:59:55.053Z,17.79
2018-02-04T07:00:54.639Z,17.8
2018-02-04T07:01:54.233Z,17.8
2018-02-04T07:02:54.889Z,17.78
2018-02-04T07:03:54.503Z,17.81
2018-02-04T07:04:55.159Z,17.8
2018-02-04T07:05:54.813Z,17.8
2018-02-04T07:06:54.416Z,17.82
2018-02-04T07:07:54.990Z,17.82
2018-02-04T07:08:54.676Z,17.82
2018-02-04T07:09:55.325Z,17.82
2018-02-04T07:10:54.932Z,17.81
2018-02-04T07:11:54.506Z,17.81
2018-02-04T07:12:55.088Z,17.83
2018-02-04T07:13:54.671Z,17.82
2018-02-04T07:14:55.461Z,17.84
2018-02-04T07:15:55.047Z,17.83
2018-02-04T07:16:54.629Z,17.83
2018-02-04T07:17:55.215Z,17.84
2018-02-04T07:18:54.779Z,17.83
2018-02-04T07:19:55.516Z,17.85
2018-02-04T07:20:55.104Z,17.85
2018-02-04T07:21:54.699Z,17.84
2018-02-04T07:22:55.279Z,17.88
2018-02-04T07:23:54.871Z,17.88
2018-02-04T07:24:54.448Z,17.85
2018-02-04T07:25:55.038Z,17.87
2018-02-04T07:26:54.626Z,17.88
2018-02-04T07:27:55.210Z,17.88
2018-02-04T07:28:54.843Z,17.87
2018-02-04T07:29:54.444Z,17.88
2018-02-04T07:30:55.042Z,17.89
2018-02-04T07:31:54.620Z,17.89
2018-02-04T07:32:55.213Z,17.89
2018-02-04T07:33:54.921Z,17.87
2018-02-04T07:34:54.711Z,17.9
2018-02-04T07:35:55.327Z,17.88
2018-02-04T07:36:55.232Z,17.89
2018-02-04T07:37:54.814Z,17.9
2018-02-04T07:38:54.438Z,17.9
2018-02-04T07:39:55.140Z,17.9
2018-02-04T07:40:54.736Z,17.91
2018-02-04T07:41:54.338Z,17.89
2018-02-04T07:43:54.472Z,17.89
2018-02-04T07:44:55.093Z,17.91
2018-02-04T07:45:54.685Z,17.91
2018-02-04T07:46:54.308Z,17.91
2018-02-04T07:47:54.898Z,17.93
2018-02-04T07:48:54.492Z,17.93
2018-02-04T07:49:55.096Z,17.91
2018-02-04T07:50:54.681Z,17.92
2018-02-04T07:51:54.297Z,17.9
2018-02-04T07:52:54.885Z,17.91
2018-02-04T07:53:54.475Z,17.91
2018-02-04T07:54:55.092Z,17.94
2018-02-04T07:55:54.712Z,17.93
2018-02-04T07:56:54.289Z,17.94
2018-02-04T07:57:54.879Z,17.92
2018-02-04T07:58:54.478Z,17.95
2018-02-04T07:59:55.060Z,17.95
2018-02-04T08:00:54.637Z,17.91
2018-02-04T08:01:54.239Z,17.92
2018-02-04T08:02:54.831Z,17.94
2018-02-04T08:03:54.424Z,17.94
2018-02-04T08:04:55.148Z,17.97
2018-02-04T08:05:54.794Z,17.94
2018-02-04T08:06:54.379Z,17.93
2018-02-04T08:07:55.008Z,17.95
2018-02-04T08:08:54.609Z,17.95
2018-02-04T08:10:54.683Z,17.95
2018-02-04T08:11:54.264Z,17.96
2018-02-04T08:12:54.843Z,17.95
2018-02-04T08:13:54.457Z,17.96
2018-02-04T08:14:54.172Z,17.96
2018-02-04T08:15:54.760Z,17.96
2018-02-04T08:16:54.392Z,17.95
2018-02-04T08:17:54.025Z,17.98
2018-02-04T08:18:54.629Z,17.99
2018-02-04T08:19:54.219Z,17.99
2018-02-04T08:20:54.810Z,17.98
2018-02-04T08:21:54.467Z,17.98
2018-02-04T08:22:54.064Z,17.97
2018-02-04T08:23:54.757Z,17.98
2018-02-04T08:24:54.365Z,18
2018-02-04T08:25:54.013Z,17.99
2018-02-04T08:26:54.630Z,17.98
2018-02-04T08:27:54.271Z,17.99
2018-02-04T08:28:54.878Z,18
2018-02-04T08:29:54.501Z,17.99
2018-02-04T08:30:54.251Z,18.02
2018-02-04T08:31:54.846Z,18.03
2018-02-04T08:32:54.452Z,17.99
2018-02-04T08:33:54.041Z,18.02
2018-02-04T08:34:54.639Z,18.02
2018-02-04T08:35:54.269Z,18
2018-02-04T08:36:54.931Z,17.98
2018-02-04T08:37:54.766Z,18.03
2018-02-04T08:38:54.436Z,18.02
2018-02-04T08:39:55.080Z,18.04
2018-02-04T08:40:54.684Z,18.02
2018-02-04T08:41:55.309Z,18.02
2018-02-04T08:42:54.903Z,18.04
2018-02-04T08:43:54.496Z,18.03
2018-02-04T08:44:55.106Z,18.04
2018-02-04T08:45:54.718Z,18.02
2018-02-04T08:46:55.332Z,18.04
2018-02-04T08:47:54.982Z,18.04
2018-02-04T08:48:54.688Z,18.04
2018-02-04T08:49:55.240Z,18
2018-02-04T08:50:54.850Z,18.04
2018-02-04T08:51:54.498Z,18.05
2018-02-04T08:52:55.124Z,18.05
2018-02-04T08:53:54.719Z,18.02
2018-02-04T08:54:55.321Z,18.06
2018-02-04T08:55:54.941Z,18.04
2018-02-04T08:56:54.506Z,18.05
2018-02-04T08:57:55.279Z,18.06
2018-02-04T08:58:54.924Z,18.05
2018-02-04T08:59:54.532Z,18.05
2018-02-04T09:00:55.129Z,18.04
2018-02-04T09:01:54.720Z,18.04
2018-02-04T09:02:55.307Z,18.04
2018-02-04T09:03:54.947Z,18.06
2018-02-04T09:04:54.554Z,18.06
2018-02-04T09:05:55.178Z,18.05
2018-02-04T09:06:54.760Z,18.04
2018-02-04T09:07:54.358Z,18.04
2018-02-04T09:08:55.110Z,18.04
2018-02-04T09:09:54.724Z,18.04
2018-02-04T09:10:54.398Z,18.02
2018-02-04T09:11:55.000Z,18.04
2018-02-04T09:12:54.604Z,18.03
2018-02-04T09:13:54.293Z,18.02
2018-02-04T09:14:54.946Z,18.02
2018-02-04T09:15:54.556Z,18.02
2018-02-04T09:16:54.171Z,18.03
2018-02-04T09:17:54.776Z,18.02
2018-02-04T09:18:54.389Z,17.99
2018-02-04T09:19:55.179Z,18.03
2018-02-04T09:20:54.851Z,18
2018-02-04T09:21:54.459Z,17.99
2018-02-04T09:22:54.140Z,18
2018-02-04T09:23:54.744Z,18.02
2018-02-04T09:24:54.372Z,17.99
2018-02-04T09:25:54.972Z,17.99
2018-02-04T09:26:54.615Z,17.99
2018-02-04T09:27:54.201Z,18
2018-02-04T09:28:54.817Z,17.99
2018-02-04T09:29:54.402Z,17.98
2018-02-04T09:30:55.008Z,18
2018-02-04T09:31:54.622Z,17.97
2018-02-04T09:32:54.218Z,17.99
2018-02-04T09:34:54.365Z,17.97
2018-02-04T09:35:54.956Z,17.98
2018-02-04T09:36:54.576Z,17.98
2018-02-04T09:37:54.174Z,17.98
2018-02-04T09:38:54.981Z,17.97
2018-02-04T09:39:54.602Z,17.99
2018-02-04T09:40:54.236Z,18.06
2018-02-04T09:41:53.845Z,18.03
2018-02-04T09:42:54.440Z,18.05
2018-02-04T09:43:54.036Z,18.07
2018-02-04T09:44:53.608Z,18.03
2018-02-04T09:45:54.271Z,18.05
2018-02-04T09:46:53.907Z,18.06
2018-02-04T09:47:54.498Z,18.07
2018-02-04T09:48:54.163Z,18.06
2018-02-04T09:49:53.842Z,18.08
2018-02-04T09:50:54.515Z,18.09
2018-02-04T09:51:54.110Z,18.11
2018-02-04T09:52:53.820Z,18.12
2018-02-04T09:53:54.455Z,18.09
2018-02-04T09:54:54.011Z,18.1
2018-02-04T09:55:53.677Z,18.12
2018-02-04T09:56:54.306Z,18.12
2018-02-04T09:57:54.001Z,18.13
2018-02-04T09:58:53.638Z,18.13
2018-02-04T09:59:28.524Z,18.7
2018-02-04T10:00:28.166Z,18.66
2018-02-04T10:01:28.766Z,18.53
2018-02-04T10:02:28.342Z,18.49
2018-02-04T10:03:28.937Z,18.47
2018-02-04T10:04:28.502Z,18.47
2018-02-04T10:05:28.080Z,18.48
2018-02-04T10:06:28.651Z,18.48
2018-02-04T10:07:28.311Z,18.47
2018-02-04T10:08:28.877Z,18.47
2018-02-04T10:09:28.446Z,18.48
2018-02-04T10:10:28.075Z,18.48
2018-02-04T10:11:09.479Z,18.46
2018-02-04T10:12:09.365Z,18.47
2018-02-04T10:13:09.047Z,18.48
2018-02-04T10:14:09.664Z,18.49
2018-02-04T10:15:09.252Z,18.5
2018-02-04T10:16:09.872Z,18.52
2018-02-04T10:17:09.534Z,18.5
2018-02-04T10:18:09.173Z,18.54
2018-02-04T10:19:09.782Z,18.53
2018-02-04T10:20:09.392Z,18.54
2018-02-04T10:21:09.010Z,18.57
2018-02-04T10:22:09.726Z,18.58
2018-02-04T10:23:09.336Z,18.62
2018-02-04T10:24:08.939Z,18.64
2018-02-04T10:25:09.553Z,18.63
2018-02-04T10:26:09.182Z,18.64
2018-02-04T10:27:09.796Z,18.66
2018-02-04T10:28:09.392Z,18.65
2018-02-04T10:29:08.992Z,18.67
2018-02-04T10:30:09.584Z,18.67
2018-02-04T10:31:09.205Z,18.67
2018-02-04T10:32:09.791Z,18.69
2018-02-04T10:33:09.424Z,18.66
2018-02-04T10:34:09.038Z,18.64
2018-02-04T10:35:09.633Z,18.66
2018-02-04T10:36:09.233Z,18.69
2018-02-04T10:37:09.872Z,18.72
2018-02-04T10:38:09.511Z,18.74
2018-02-04T10:39:09.209Z,18.74
2018-02-04T10:40:09.837Z,18.77
2018-02-04T10:41:09.485Z,18.79
2018-02-04T10:42:09.195Z,18.81
2018-02-04T10:43:08.781Z,18.8
2018-02-04T10:44:09.476Z,18.82
2018-02-04T10:45:09.097Z,18.82
2018-02-04T10:46:08.701Z,18.83
2018-02-04T10:47:09.373Z,18.82
2018-02-04T10:48:09.041Z,18.84
2018-02-04T10:49:08.633Z,18.83
2018-02-04T10:50:09.231Z,18.84
2018-02-04T10:51:08.822Z,18.85
2018-02-04T10:52:09.459Z,18.85
2018-02-04T10:53:09.057Z,18.88
2018-02-04T10:54:08.713Z,18.87
2018-02-04T10:55:09.323Z,18.88
2018-02-04T10:56:08.934Z,18.88
2018-02-04T10:57:08.720Z,18.94
2018-02-04T10:58:09.316Z,18.94
2018-02-04T10:59:08.964Z,18.91
2018-02-04T11:00:08.618Z,18.82
2018-02-04T11:01:09.225Z,18.79
2018-02-04T11:02:08.812Z,18.81
2018-02-04T11:03:09.408Z,18.86
2018-02-04T11:04:09.116Z,18.88
2018-02-04T11:05:08.701Z,18.89
2018-02-04T11:06:09.399Z,18.96
2018-02-04T11:07:08.977Z,18.96
2018-02-04T11:08:08.603Z,18.96
2018-02-04T11:09:09.223Z,18.96
2018-02-04T11:10:08.811Z,18.88
2018-02-04T11:11:09.720Z,18.77
2018-02-04T11:12:08.801Z,18.62
2018-02-04T11:13:09.403Z,18.53
2018-02-04T11:14:08.987Z,18.42
2018-02-04T11:15:09.573Z,18.53
2018-02-04T11:16:09.211Z,18.38
2018-02-04T11:17:08.832Z,18.41
2018-02-04T11:18:09.478Z,18.43
2018-02-04T11:19:09.080Z,18.51
2018-02-04T11:20:09.666Z,18.54
2018-02-04T11:21:09.293Z,18.57
2018-02-04T11:22:08.910Z,18.58
2018-02-04T11:23:09.499Z,18.61
2018-02-04T11:24:09.091Z,18.62
2018-02-04T11:25:09.711Z,18.65
2018-02-04T11:26:09.293Z,18.67
2018-02-04T11:27:08.931Z,18.66
2018-02-04T11:28:09.522Z,18.66
2018-02-04T11:29:09.109Z,18.7
2018-02-04T11:30:09.714Z,18.74
2018-02-04T11:31:09.327Z,18.76
2018-02-04T11:32:09.220Z,18.79
2018-02-04T11:33:08.852Z,18.88
2018-02-04T11:34:09.536Z,18.91
2018-02-04T11:35:09.161Z,18.85
2018-02-04T11:36:08.766Z,18.87
2018-02-04T11:37:09.456Z,18.84
2018-02-04T11:38:09.050Z,18.81
2018-02-04T11:39:09.652Z,18.82
2018-02-04T11:40:09.291Z,18.81
2018-02-04T11:41:08.954Z,18.82
2018-02-04T11:42:09.549Z,18.84
2018-02-04T11:43:09.243Z,18.86
2018-02-04T11:44:08.845Z,18.86
2018-02-04T11:45:09.528Z,18.86
2018-02-04T11:46:09.121Z,18.85
2018-02-04T11:47:08.697Z,18.86
2018-02-04T11:48:09.319Z,18.86
2018-02-04T11:49:08.934Z,18.86
2018-02-04T11:50:08.748Z,18.88
2018-02-04T11:51:09.395Z,18.93
2018-02-04T11:52:08.990Z,18.95
2018-02-04T11:53:08.596Z,18.95
2018-02-04T11:54:09.282Z,18.97
2018-02-04T11:55:08.891Z,18.99
2018-02-04T11:56:08.508Z,18.98
2018-02-04T11:57:09.095Z,18.99
2018-02-04T11:58:08.695Z,19
2018-02-04T11:59:09.372Z,19.05
2018-02-04T12:00:09.168Z,19.01
2018-02-04T12:01:08.795Z,19.01
2018-02-04T12:02:09.577Z,19.01
2018-02-04T12:04:08.784Z,19.03
2018-02-04T12:05:09.420Z,19.03
2018-02-04T12:06:09.026Z,19.08
2018-02-04T12:07:08.633Z,19.09
2018-02-04T12:08:09.229Z,19.13
2018-02-04T12:09:08.840Z,19.13
2018-02-04T12:10:09.425Z,19.11
2018-02-04T12:11:09.044Z,19.1
2018-02-04T12:12:08.786Z,19.09
2018-02-04T12:13:08.632Z,19.1
2018-02-04T12:14:09.244Z,19.12
2018-02-04T12:15:08.907Z,19.1
2018-02-04T12:16:09.534Z,19.12
2018-02-04T12:17:09.128Z,19.05
2018-02-04T12:18:08.861Z,19.07
2018-02-04T12:19:09.582Z,19.08
2018-02-04T12:20:09.231Z,19.05
2018-02-04T12:21:09.238Z,19.1
2018-02-04T12:22:08.853Z,19.07
2018-02-04T12:23:09.449Z,19.05
2018-02-04T12:24:09.314Z,19.08
2018-02-04T12:26:09.314Z,19.1
2018-02-04T12:27:08.912Z,19.1
2018-02-04T12:28:09.525Z,19.09
2018-02-04T12:29:09.134Z,19.11
2018-02-04T12:30:08.742Z,19.1
2018-02-04T12:31:09.346Z,19.1
2018-02-04T12:32:08.957Z,19.1
2018-02-04T12:33:09.603Z,19.11
2018-02-04T12:35:08.637Z,19.13
2018-02-04T12:36:09.271Z,19.1
2018-02-04T12:37:08.942Z,19.12
2018-02-04T12:39:09.028Z,19.08
2018-02-04T12:40:08.752Z,19.08
2018-02-04T12:41:09.356Z,19.08
2018-02-04T12:42:09.004Z,19.09
2018-02-04T12:43:08.795Z,19.09
2018-02-04T12:44:09.409Z,19.11
2018-02-04T12:45:09.110Z,19.11
2018-02-04T12:46:08.841Z,19.12
2018-02-04T12:47:09.475Z,19.11
2018-02-04T12:48:09.094Z,19.07
2018-02-04T12:49:08.688Z,19.1
2018-02-04T12:50:09.330Z,19.08
2018-02-04T12:51:08.936Z,19.06
2018-02-04T12:52:09.543Z,19.02
2018-02-04T12:54:08.792Z,19.06
2018-02-04T12:55:38.022Z,19.07
2018-02-04T12:56:37.636Z,19.07
2018-02-04T12:57:38.298Z,19.07
2018-02-04T13:00:37.910Z,19.06
2018-02-04T13:01:37.567Z,19.06
2018-02-04T13:04:38.253Z,19.08
2018-02-04T13:05:37.867Z,19.06
2018-02-04T13:06:37.488Z,19.06
2018-02-04T13:07:38.101Z,19.07
2018-02-04T13:10:37.990Z,19.07
2018-02-04T13:11:37.606Z,19.07